메인 페이지
METAR-TAF:

METAR-TAF

공항 :

기타큐슈 공항

기타큐슈, 일본

위도: 33-50N, 경도: 130-57E, 고도: 3m

현재 날씨관측

예보는 17분 전, 04:00시(UTC)에 발표되었습니다.
3kt남남서풍과 북서풍을 오가는
온도 21°C
습도 38%
기압 1012 hPa
시정 10km 이상
고도 2500ft 상공 구름 조금
구름 보통

METAR: RJFR 160400Z 26003KT 210V310 9999 FEW025 SCT/// 21/06 Q1012

시각: 13:17 (04:17 UTC)

예보

예보는 1 시간 13분 전, 03:04시(UTC)에 발표되었습니다.
예보 대상 시간: 16일 03시부터 17일 06시까지 (UTC)
남남동6kt
시정 10km 이상
고도 3000ft 상공 구름 조금
전환 중
16일 03시부터 16일 05시까지 (UTC)
북서11kt
전환 중
16일 12시부터 16일 15시까지 (UTC)
서남서4kt
전환 중
17일 03시부터 17일 06시까지 (UTC)
북북서13kt

TAF: RJFR 160304Z 1603/1706 15006KT 9999 FEW030 BECMG 1603/1605 31011KT BECMG 1612/1615 24004KT BECMG 1703/1706 33013KT

4,000개 이상의 공항 관측 자료 및 예보 (METAR 및 TAF 보고).

지도상에서 검색 가능한 기상관측소가 노란 점과 빨간 점으로 표시되어 있습니다.

기상관측소 명을 보려면 표시 위로 마우스를 이동하세요.

날씨 관측과 예보를 보려면 클릭하세요.

지도 변경 : 확대하려면 엑스 표시가 있는 녹색 버튼, 축소하려면 빼기 표시가 있는 녹색 버튼, 다음 페이지의 지도를 보려면 녹색 화살표를 클릭하세요.


METAR-TAF: